Time;durP1;ratioP1;P1;durP2;ratioP2;P2;SDS_P1;SDS_P2;PMS_P1;PMS_P2;Temp;Humidity;BMP_temperature;BMP_pressure;BME280_temperature;BME280_humidity;BME280_pressure;Samples;Min_cycle;Max_cycle;Signal;HPM_P1;HPM_P2
2022/11/11 00:00:22;;;;;;;119.20;61.20;;;;;;;5.08;85.96;100223.48;85989;1294;22567;-71
2022/11/11 00:02:46;;;;;;;119.90;61.20;;;;;;;5.05;86.09;100223.14;85849;1296;100010;-70
2022/11/11 00:04:48;;;;;;;104.30;61.10;;;;;;;5.04;86.00;100232.73;85971;1283;22897;-71
2022/11/11 00:06:52;;;;;;;109.70;60.50;;;;;;;5.00;86.01;100235.02;85989;1290;22482;-71
2022/11/11 00:08:54;;;;;;;117.90;63.50;;;;;;;4.97;85.97;100236.42;85737;1291;99777;-72
2022/11/11 00:11:04;;;;;;;111.70;60.30;;;;;;;4.93;85.99;100237.14;85854;1283;23332;-70
2022/11/11 00:13:06;;;;;;;108.40;61.70;;;;;;;4.89;85.91;100241.86;85834;1291;22530;-72
2022/11/11 00:15:10;;;;;;;119.80;62.10;;;;;;;4.86;85.92;100242.73;86083;1284;100176;-72
2022/11/11 00:26:48;;;;;;;116.60;60.30;;;;;;;4.68;85.83;100248.20;85940;1290;100325;-72
2022/11/11 00:28:50;;;;;;;103.50;57.80;;;;;;;4.65;85.79;100251.88;85811;1287;22545;-72
2022/11/11 00:31:04;;;;;;;108.60;61.40;;;;;;;4.61;85.80;100258.33;85984;1288;22554;-72
2022/11/11 00:33:06;;;;;;;113.70;61.10;;;;;;;4.60;85.72;100261.48;85958;1296;100324;-71
2022/11/11 00:37:33;;;;;;;98.30;56.20;;;;;;;4.53;85.74;100262.19;85895;1291;22477;-72
2022/11/11 00:39:35;;;;;;;108.00;59.20;;;;;;;4.53;85.74;100266.52;85819;1291;99535;-71
2022/11/11 00:41:37;;;;;;;111.40;60.90;;;;;;;4.50;85.81;100269.85;85839;1299;23908;-71
2022/11/11 00:43:39;;;;;;;104.80;58.80;;;;;;;4.48;85.86;100268.98;85493;1293;22650;-71
2022/11/11 00:45:40;;;;;;;99.50;57.50;;;;;;;4.46;85.82;100267.23;85629;1299;99774;-71
2022/11/11 00:52:26;;;;;;;108.90;58.20;;;;;;;4.38;85.75;100269.02;85817;1298;23594;-71
2022/11/11 00:54:28;;;;;;;111.40;54.40;;;;;;;4.35;85.89;100267.10;85726;1291;22488;-71
2022/11/11 00:56:30;;;;;;;101.00;56.70;;;;;;;4.32;85.58;100265.37;85327;1293;100960;-71
2022/11/11 00:58:32;;;;;;;103.10;58.70;;;;;;;4.29;85.83;100260.32;85695;1291;22480;-71
2022/11/11 01:00:34;;;;;;;118.70;60.90;;;;;;;4.28;85.88;100261.89;85630;1315;22499;-71
2022/11/11 01:02:36;;;;;;;110.40;61.50;;;;;;;4.28;85.91;100257.37;85781;1283;99746;-71
2022/11/11 01:04:37;;;;;;;120.30;62.30;;;;;;;4.28;85.89;100254.92;85791;1283;22505;-72
2022/11/11 01:06:39;;;;;;;115.70;59.20;;;;;;;4.28;85.90;100253.20;85699;1293;26987;-72
2022/11/11 01:08:41;;;;;;;115.80;62.30;;;;;;;4.28;86.05;100257.02;85703;1290;100672;-72
2022/11/11 01:10:43;;;;;;;121.70;63.70;;;;;;;4.25;86.03;100252.52;85723;1291;22554;-71
2022/11/11 01:12:45;;;;;;;110.20;63.50;;;;;;;4.26;86.03;100253.89;85781;1290;22500;-71
2022/11/11 01:14:47;;;;;;;119.30;62.90;;;;;;;4.27;86.13;100248.68;85802;1288;99726;-71
2022/11/11 01:16:48;;;;;;;123.30;66.00;;;;;;;4.29;86.00;100247.80;85831;1297;23323;-71
2022/11/11 01:18:51;;;;;;;123.10;64.70;;;;;;;4.31;86.21;100248.50;85795;1288;22591;-73
2022/11/11 01:21:04;;;;;;;111.60;63.40;;;;;;;4.31;86.16;100250.23;85731;1290;98485;-70
2022/11/11 01:23:07;;;;;;;121.00;61.50;;;;;;;4.30;86.34;100247.27;85756;1293;25396;-72
2022/11/11 01:25:09;;;;;;;123.10;63.30;;;;;;;4.30;86.30;100245.20;85926;1296;25906;-71
2022/11/11 01:27:11;;;;;;;119.30;64.30;;;;;;;4.30;86.23;100238.06;85509;1301;100290;-71
2022/11/11 01:29:12;;;;;;;110.10;61.50;;;;;;;4.30;86.22;100236.32;85634;1284;22759;-73
2022/11/11 01:31:18;;;;;;;106.20;61.30;;;;;;;4.30;86.06;100234.23;85827;1296;22590;-71
2022/11/11 01:33:19;;;;;;;110.50;61.90;;;;;;;4.31;86.13;100232.66;85388;1300;99925;-71
2022/11/11 01:35:21;;;;;;;106.20;57.10;;;;;;;4.30;86.40;100229.88;85668;1294;23628;-71
2022/11/11 01:37:23;;;;;;;105.70;60.60;;;;;;;4.30;86.11;100235.09;85767;1296;23248;-71
2022/11/11 01:39:25;;;;;;;109.00;60.00;;;;;;;4.31;86.33;100237.18;85561;1298;100332;-70
2022/11/11 01:41:33;;;;;;;109.70;62.10;;;;;;;4.31;86.23;100234.75;85626;1299;22740;-71
2022/11/11 01:43:35;;;;;;;105.70;59.40;;;;;;;4.31;86.17;100233.89;85797;1298;22531;-72
2022/11/11 01:46:01;;;;;;;97.50;59.10;;;;;;;4.32;86.33;100236.83;85684;1299;99830;-70
2022/11/11 01:50:24;;;;;;;102.80;56.60;;;;;;;4.33;86.41;100246.21;85743;1304;99863;-71
2022/11/11 01:52:37;;;;;;;102.90;58.00;;;;;;;4.33;86.31;100244.13;85714;1284;24025;-71
2022/11/11 01:54:50;;;;;;;99.50;56.40;;;;;;;4.35;86.35;100246.74;85726;1297;22473;-72
2022/11/11 01:56:59;;;;;;;90.50;53.80;;;;;;;4.37;86.33;100249.52;85843;1287;99990;-71
2022/11/11 01:59:06;;;;;;;93.10;54.50;;;;;;;4.38;86.36;100249.70;85918;1298;22615;-72
2022/11/11 02:01:09;;;;;;;97.50;56.30;;;;;;;4.41;86.42;100254.91;85712;1291;25042;-72
2022/11/11 02:03:13;;;;;;;103.60;57.60;;;;;;;4.43;86.34;100260.30;85765;1301;100161;-72
2022/11/11 02:07:40;;;;;;;92.40;52.80;;;;;;;4.49;86.52;100249.31;85817;1290;24485;-71
2022/11/11 02:09:46;;;;;;;96.60;56.20;;;;;;;4.51;86.46;100245.83;85609;1297;99553;-71
2022/11/11 02:16:30;;;;;;;92.40;50.90;;;;;;;4.66;86.42;100246.48;85853;1284;22694;-71
2022/11/11 02:18:33;;;;;;;93.30;55.60;;;;;;;4.69;86.62;100252.73;85760;1290;22534;-72
2022/11/11 02:20:38;;;;;;;94.50;54.80;;;;;;;4.74;86.61;100251.67;85618;1290;99731;-70
2022/11/11 02:23:16;;;;;;;101.30;53.40;;;;;;;4.78;86.67;100252.88;85790;1296;22743;-70
2022/11/11 02:25:23;;;;;;;87.60;52.60;;;;;;;4.84;86.60;100254.43;85857;1287;22480;-71
2022/11/11 02:27:29;;;;;;;89.60;54.60;;;;;;;4.87;86.68;100254.93;85551;1299;99592;-72
2022/11/11 02:29:33;;;;;;;94.40;53.50;;;;;;;4.91;86.51;100252.99;85843;1296;22483;-72
2022/11/11 02:31:35;;;;;;;96.70;55.60;;;;;;;4.96;86.68;100255.93;85880;1294;22541;-72
2022/11/11 02:33:37;;;;;;;90.20;53.30;;;;;;;5.00;86.78;100254.70;85666;1297;99862;-71
2022/11/11 02:35:53;;;;;;;96.10;54.10;;;;;;;4.86;86.66;100230.02;85713;1297;25301;-70
2022/11/11 02:37:55;;;;;;;83.20;50.70;;;;;;;5.08;86.71;100264.06;85901;1298;22554;-70
2022/11/11 02:40:01;;;;;;;91.10;51.80;;;;;;;5.12;86.74;100267.52;85806;1298;98546;-71
2022/11/11 02:42:09;;;;;;;86.20;50.70;;;;;;;5.17;86.73;100266.63;85754;1299;22522;-71
2022/11/11 02:44:13;;;;;;;87.60;52.20;;;;;;;5.15;86.70;100258.97;86020;1293;100928;-70
2022/11/11 02:46:17;;;;;;;83.50;49.40;;;;;;;5.24;86.67;100262.23;86487;1304;25969;-72
2022/11/11 02:48:19;;;;;;;88.30;47.90;;;;;;;5.28;86.69;100266.40;86032;1288;22500;-70
2022/11/11 02:50:21;;;;;;;83.60;49.60;;;;;;;5.32;86.83;100266.37;85776;1290;100209;-72
2022/11/11 02:52:23;;;;;;;85.40;48.60;;;;;;;5.37;86.73;100272.79;85835;1291;22496;-71
2022/11/11 02:54:25;;;;;;;84.70;47.50;;;;;;;5.40;86.75;100272.77;85881;1290;23359;-72
2022/11/11 02:58:48;;;;;;;85.90;46.80;;;;;;;5.47;86.70;100272.91;85858;1291;26575;-70
2022/11/11 03:00:49;;;;;;;85.90;45.10;;;;;;;5.49;86.74;100272.20;85935;1287;22498;-71
2022/11/11 03:02:52;;;;;;;76.00;44.60;;;;;;;5.52;86.78;100270.77;85746;1291;100067;-70
2022/11/11 03:04:55;;;;;;;70.10;42.50;;;;;;;5.54;86.81;100271.98;85857;1281;26505;-72
2022/11/11 03:06:57;;;;;;;77.90;45.00;;;;;;;5.56;86.81;100271.11;85742;1290;24259;-71
2022/11/11 03:08:59;;;;;;;71.50;42.80;;;;;;;5.58;86.76;100272.84;85880;1281;100755;-70
2022/11/11 03:11:01;;;;;;;80.20;45.10;;;;;;;5.60;86.68;100270.36;85657;1290;22558;-72
2022/11/11 03:13:03;;;;;;;73.40;44.60;;;;;;;5.63;86.66;100267.75;85685;1299;23482;-72
2022/11/11 03:15:05;;;;;;;75.00;45.20;;;;;;;5.65;86.73;100268.95;85749;1298;99712;-71
2022/11/11 03:19:28;;;;;;;74.70;45.00;;;;;;;5.70;86.67;100273.27;85841;1290;24406;-72
2022/11/11 03:21:30;;;;;;;86.00;43.50;;;;;;;5.72;86.70;100268.89;85530;1298;99455;-71
2022/11/11 03:23:31;;;;;;;79.20;44.60;;;;;;;5.74;86.64;100267.48;85698;1301;24839;-72
2022/11/11 03:25:37;;;;;;;72.90;42.30;;;;;;;5.75;86.62;100264.16;85773;1290;22792;-71
2022/11/11 03:27:41;;;;;;;83.10;43.50;;;;;;;5.77;86.87;100267.13;85488;1306;99508;-72
2022/11/11 03:29:42;;;;;;;77.50;43.00;;;;;;;5.79;86.60;100266.92;85573;1299;22556;-70
2022/11/11 03:31:44;;;;;;;87.10;45.10;;;;;;;5.81;86.81;100268.30;85829;1284;23380;-71
2022/11/11 03:33:46;;;;;;;83.00;44.00;;;;;;;5.84;86.76;100271.59;85712;1289;100164;-70
2022/11/11 03:35:48;;;;;;;68.30;41.50;;;;;;;5.86;86.80;100273.51;85663;1291;23695;-71
2022/11/11 03:40:12;;;;;;;71.50;41.70;;;;;;;5.91;86.84;100275.55;85658;1290;22479;-70
2022/11/11 03:42:14;;;;;;;77.00;42.50;;;;;;;5.92;86.56;100270.66;85911;1296;23933;-71
2022/11/11 03:44:16;;;;;;;72.70;44.00;;;;;;;5.93;86.76;100270.65;85697;1291;100842;-71
2022/11/11 03:46:17;;;;;;;72.10;44.60;;;;;;;5.96;86.70;100266.45;85707;1291;22519;-70
2022/11/11 03:48:20;;;;;;;77.80;43.50;;;;;;;5.97;86.68;100263.14;85774;1298;24410;-72
2022/11/11 03:50:22;;;;;;;75.20;43.40;;;;;;;6.00;86.86;100265.74;85606;1301;100032;-70
2022/11/11 03:52:23;;;;;;;79.90;43.50;;;;;;;6.01;86.71;100267.81;85678;1290;23466;-71
2022/11/11 03:54:25;;;;;;;69.10;41.80;;;;;;;6.02;86.77;100267.81;85665;1290;22481;-70
2022/11/11 03:56:27;;;;;;;69.90;41.50;;;;;;;6.04;86.81;100272.17;85784;1288;99826;-72
2022/11/11 03:58:28;;;;;;;82.50;43.30;;;;;;;5.93;86.78;100257.43;85724;1297;23856;-71
2022/11/11 04:00:30;;;;;;;69.00;42.10;;;;;;;6.06;86.66;100278.25;85824;1297;27478;-70
2022/11/11 04:11:57;;;;;;;67.10;41.30;;;;;;;6.15;86.80;100278.52;85793;1298;22953;-71
2022/11/11 04:16:25;;;;;;;66.30;41.40;;;;;;;6.17;86.60;100262.80;85744;1290;24205;-71
2022/11/11 04:23:09;;;;;;;67.60;42.50;;;;;;;6.18;86.64;100256.51;85771;1290;22514;-72
2022/11/11 04:27:32;;;;;;;75.30;44.40;;;;;;;6.19;86.59;100263.47;85684;1284;99683;-71
2022/11/11 04:29:34;;;;;;;77.80;44.10;;;;;;;6.19;86.48;100261.73;85837;1289;24266;-71
2022/11/11 04:32:34;;;;;;;70.60;42.20;;;;;;;6.19;86.55;100266.96;85804;1290;24919;-70
2022/11/11 04:33:59;;;;;;;67.80;42.70;;;;;;;6.18;86.67;100268.54;85730;1307;99615;-71
2022/11/11 04:36:01;;;;;;;73.80;43.60;;;;;;;6.17;86.45;100271.52;85883;1288;22943;-71
2022/11/11 04:42:43;;;;;;;67.00;39.30;;;;;;;6.05;86.24;100267.27;85826;1296;22635;-71
2022/11/11 04:47:05;;;;;;;73.00;41.90;;;;;;;5.93;86.38;100265.23;85730;1296;22574;-71
2022/11/11 04:49:07;;;;;;;65.10;40.20;;;;;;;5.84;86.19;100253.46;85727;1297;22562;-70
2022/11/11 04:51:09;;;;;;;71.00;40.50;;;;;;;5.87;86.21;100269.48;85829;1288;99554;-71
2022/11/11 04:53:14;;;;;;;75.70;42.80;;;;;;;5.84;86.25;100273.16;85589;1293;22521;-71
2022/11/11 04:57:41;;;;;;;69.80;41.20;;;;;;;5.78;86.21;100275.83;85827;1291;99830;-71
2022/11/11 04:59:44;;;;;;;71.40;40.40;;;;;;;5.75;86.12;100274.98;85864;1284;22502;-71
2022/11/11 05:04:08;;;;;;;75.70;40.90;;;;;;;5.66;86.25;100273.29;85599;1296;99977;-72
2022/11/11 05:10:51;;;;;;;71.50;43.20;;;;;;;5.54;86.28;100293.96;85728;1298;25568;-71
2022/11/11 05:21:19;;;;;;;82.50;43.50;;;;;;;5.55;86.27;100301.98;85835;1296;24890;-71
2022/11/11 05:22:20;;;;;;;70.00;41.20;;;;;;;5.43;86.41;100309.01;85736;1295;99864;-71
2022/11/11 05:26:42;;;;;;;72.80;40.10;;;;;;;5.41;86.31;100313.04;85799;1291;99701;-72
2022/11/11 05:28:45;;;;;;;76.60;41.90;;;;;;;5.40;86.40;100312.52;85720;1293;24262;-71
2022/11/11 05:30:50;;;;;;;69.30;41.10;;;;;;;5.40;86.44;100310.94;85858;1312;22472;-70
2022/11/11 05:32:54;;;;;;;65.30;41.30;;;;;;;5.41;86.43;100314.27;85633;1300;99808;-70
2022/11/11 05:34:56;;;;;;;78.30;42.70;;;;;;;5.42;86.56;100317.04;85842;1297;22494;-71
2022/11/11 05:36:58;;;;;;;75.30;41.60;;;;;;;5.42;86.47;100321.22;85696;1307;22628;-71
2022/11/11 05:39:00;;;;;;;63.40;39.00;;;;;;;5.43;86.44;100319.14;85647;1290;100015;-70
2022/11/11 05:41:01;;;;;;;65.60;38.70;;;;;;;5.42;86.46;100312.52;85976;1297;24461;-71
2022/11/11 05:43:03;;;;;;;74.50;42.00;;;;;;;5.42;86.53;100313.73;85849;1298;22473;-71
2022/11/11 05:45:05;;;;;;;75.10;40.30;;;;;;;5.40;86.49;100310.59;85429;1286;99801;-70
2022/11/11 05:47:07;;;;;;;67.40;39.20;;;;;;;5.43;86.60;100315.45;85999;1298;22651;-71
2022/11/11 05:49:15;;;;;;;74.40;40.30;;;;;;;5.44;86.54;100318.60;85688;1300;22651;-69
2022/11/11 05:51:26;;;;;;;68.40;40.60;;;;;;;5.44;86.52;100318.94;85642;1284;100301;-71
2022/11/11 05:53:28;;;;;;;69.20;40.60;;;;;;;5.46;86.44;100326.78;85591;1293;22487;-70
2022/11/11 05:55:30;;;;;;;78.30;41.50;;;;;;;5.48;86.57;100331.48;85665;1299;22482;-71
2022/11/11 05:57:31;;;;;;;76.50;42.70;;;;;;;5.49;86.79;100335.30;85655;1297;100045;-70
2022/11/11 05:59:33;;;;;;;68.90;40.40;;;;;;;5.51;86.67;100336.70;85818;1294;22649;-71
2022/11/11 06:01:37;;;;;;;72.50;40.10;;;;;;;5.53;86.67;100337.20;85633;1297;23451;-70
2022/11/11 06:03:39;;;;;;;67.80;39.20;;;;;;;5.55;86.68;100338.23;85703;1291;99583;-71
2022/11/11 06:05:40;;;;;;;64.20;38.80;;;;;;;5.58;86.63;100341.36;85573;1297;23961;-70
2022/11/11 06:07:42;;;;;;;71.50;40.50;;;;;;;5.61;86.65;100345.00;85627;1296;23416;-70
2022/11/11 06:09:44;;;;;;;69.10;40.70;;;;;;;5.64;86.65;100342.36;85598;1284;99629;-70
2022/11/11 06:11:46;;;;;;;70.00;39.20;;;;;;;5.67;86.64;100341.31;85805;1297;22532;-70
2022/11/11 06:13:48;;;;;;;77.80;40.40;;;;;;;5.70;86.72;100342.15;85817;1297;22500;-70
2022/11/11 06:15:50;;;;;;;66.10;38.80;;;;;;;5.73;86.64;100341.27;85727;1309;99911;-71
2022/11/11 06:17:52;;;;;;;64.40;38.10;;;;;;;5.77;86.74;100338.80;85740;1298;25371;-73
2022/11/11 06:19:54;;;;;;;72.70;39.40;;;;;;;5.80;86.89;100336.85;85934;1312;22714;-70
2022/11/11 06:21:55;;;;;;;61.80;38.00;;;;;;;5.83;86.81;100338.23;85611;1313;99657;-71
2022/11/11 06:23:57;;;;;;;66.40;38.70;;;;;;;5.86;86.70;100333.86;86189;1294;23993;-71
2022/11/11 06:26:15;;;;;;;67.30;39.10;;;;;;;5.83;86.84;100322.73;86360;1300;24264;-70
2022/11/11 06:28:18;;;;;;;59.80;38.20;;;;;;;5.93;86.72;100337.46;85648;1300;98180;-70
2022/11/11 06:30:20;;;;;;;69.10;37.80;;;;;;;5.97;86.88;100340.08;85830;1299;24263;-71
2022/11/11 06:32:21;;;;;;;60.70;38.30;;;;;;;5.99;86.77;100347.40;85730;1291;22522;-69
2022/11/11 06:34:23;;;;;;;67.10;36.80;;;;;;;6.02;86.84;100349.64;85905;1298;99683;-70
2022/11/11 06:36:25;;;;;;;63.50;37.40;;;;;;;6.05;86.75;100354.16;85941;1290;22512;-70
2022/11/11 06:38:26;;;;;;;66.50;36.30;;;;;;;6.07;86.63;100351.02;85790;1292;101184;-70
2022/11/11 06:40:29;;;;;;;65.60;37.50;;;;;;;6.09;86.69;100347.85;85822;1290;22542;-73
2022/11/11 06:42:36;;;;;;;61.10;37.80;;;;;;;6.12;86.74;100342.42;85720;1289;25354;-71
2022/11/11 06:44:37;;;;;;;71.30;39.10;;;;;;;6.16;86.67;100337.48;85650;1300;99934;-69
2022/11/11 06:46:39;;;;;;;68.00;39.00;;;;;;;6.20;86.77;100335.71;85659;1294;26541;-70
2022/11/11 06:48:42;;;;;;;63.30;34.20;;;;;;;6.24;86.72;100339.89;85743;1291;22597;-70
2022/11/11 06:50:44;;;;;;;59.40;35.90;;;;;;;6.23;86.80;100339.88;85613;1290;99548;-69
2022/11/11 06:52:46;;;;;;;69.00;36.90;;;;;;;6.31;86.71;100349.95;85693;1291;22572;-69
2022/11/11 06:54:49;;;;;;;66.10;37.10;;;;;;;6.34;86.68;100347.48;85713;1291;22486;-69
2022/11/11 06:56:50;;;;;;;61.50;37.70;;;;;;;6.37;86.74;100350.76;85726;1289;98782;-70
2022/11/11 06:58:52;;;;;;;62.30;37.00;;;;;;;6.40;86.65;100344.45;85665;1298;23938;-70
2022/11/11 07:00:54;;;;;;;68.40;37.30;;;;;;;6.44;86.68;100344.59;85761;1284;24386;-70
2022/11/11 07:02:55;;;;;;;64.90;39.70;;;;;;;6.49;86.93;100348.23;85648;1297;99685;-71
2022/11/11 07:04:58;;;;;;;63.40;37.00;;;;;;;6.52;86.90;100354.98;85738;1291;23666;-70
2022/11/11 07:06:59;;;;;;;62.70;36.60;;;;;;;6.56;86.64;100359.31;85635;1290;22597;-70
2022/11/11 07:09:01;;;;;;;59.40;36.80;;;;;;;6.59;86.60;100353.35;85761;1287;100329;-69
2022/11/11 07:11:03;;;;;;;69.80;38.50;;;;;;;6.63;87.01;100358.55;85787;1290;22477;-70
2022/11/11 07:13:06;;;;;;;67.80;36.60;;;;;;;6.68;86.77;100354.85;85839;1288;23590;-70
2022/11/11 07:15:08;;;;;;;58.00;38.00;;;;;;;6.71;86.71;100357.60;85585;1291;100213;-70
2022/11/11 07:17:10;;;;;;;61.30;36.20;;;;;;;6.73;86.75;100354.79;85786;1287;23192;-70
2022/11/11 07:19:12;;;;;;;61.20;36.70;;;;;;;6.75;86.63;100354.77;85607;1284;22718;-69
2022/11/11 07:21:14;;;;;;;62.00;36.20;;;;;;;6.79;86.72;100349.66;85609;1283;99585;-70
2022/11/11 07:23:16;;;;;;;62.50;37.80;;;;;;;6.81;86.90;100338.45;85675;1290;24532;-70
2022/11/11 07:25:18;;;;;;;66.40;38.70;;;;;;;6.84;86.55;100339.64;85653;1292;22541;-69
2022/11/11 07:27:20;;;;;;;68.10;36.10;;;;;;;6.87;86.78;100338.21;85764;1286;99566;-70
2022/11/11 07:29:21;;;;;;;59.00;36.00;;;;;;;6.91;86.98;100335.73;85706;1290;23382;-70
2022/11/11 07:31:23;;;;;;;58.80;35.90;;;;;;;6.95;86.71;100331.48;85768;1291;25425;-70
2022/11/11 07:33:25;;;;;;;61.90;37.20;;;;;;;6.98;86.82;100332.51;85940;1283;100101;-69
2022/11/11 07:35:26;;;;;;;65.70;38.50;;;;;;;7.02;87.04;100335.27;85771;1283;22549;-69
2022/11/11 07:37:30;;;;;;;66.80;40.70;;;;;;;7.05;86.92;100336.27;85895;1288;23687;-70
2022/11/11 07:39:32;;;;;;;67.70;42.80;;;;;;;7.06;86.51;100323.31;86020;1290;99556;-69
2022/11/11 07:41:34;;;;;;;70.20;43.40;;;;;;;7.10;86.82;100325.89;85880;1291;22646;-69
2022/11/11 07:43:35;;;;;;;63.90;43.00;;;;;;;7.13;86.72;100330.39;85889;1289;192916;-72
2022/11/11 07:45:37;;;;;;;68.80;42.00;;;;;;;7.17;86.67;100330.17;85898;1284;99720;-71
2022/11/11 07:47:42;;;;;;;69.10;40.90;;;;;;;7.21;86.64;100333.44;86032;1281;24257;-70
2022/11/11 07:49:43;;;;;;;61.70;40.60;;;;;;;7.25;86.59;100330.59;86064;1291;22466;-70
2022/11/11 07:51:45;;;;;;;71.40;39.60;;;;;;;7.30;86.66;100322.15;86055;1281;99058;-70
2022/11/11 07:53:47;;;;;;;71.50;39.90;;;;;;;7.34;86.72;100315.63;85861;1290;22681;-70
2022/11/11 07:55:48;;;;;;;67.60;38.50;;;;;;;7.41;86.60;100312.73;85995;1288;25298;-73
2022/11/11 07:57:52;;;;;;;63.80;38.70;;;;;;;7.46;86.57;100311.45;85928;1291;98394;-71
2022/11/11 07:59:53;;;;;;;57.70;35.60;;;;;;;7.51;86.58;100308.92;85942;1291;22494;-71
2022/11/11 08:01:55;;;;;;;69.20;36.30;;;;;;;7.55;86.74;100302.40;86105;1287;25289;-69
2022/11/11 08:03:57;;;;;;;58.40;35.10;;;;;;;7.61;86.74;100304.24;85954;1290;98456;-70
2022/11/11 08:06:01;;;;;;;59.60;33.30;;;;;;;7.66;86.61;100302.24;86130;1285;22525;-71
2022/11/11 08:08:05;;;;;;;55.90;32.40;;;;;;;7.70;86.44;100302.00;86045;1283;22650;-72
2022/11/11 08:10:09;;;;;;;54.60;34.90;;;;;;;7.74;86.61;100302.11;85951;1284;99530;-71
2022/11/11 08:14:32;;;;;;;61.90;34.10;;;;;;;7.83;86.73;100307.92;86062;1290;100094;-71
2022/11/11 08:16:33;;;;;;;63.10;33.40;;;;;;;7.87;86.41;100302.62;86120;1288;22965;-70
2022/11/11 08:18:36;;;;;;;63.70;33.30;;;;;;;7.91;86.41;100302.20;86070;1284;22502;-71
2022/11/11 08:20:38;;;;;;;55.10;31.30;;;;;;;7.95;86.57;100304.23;86089;1287;98913;-70
2022/11/11 08:22:41;;;;;;;52.50;31.30;;;;;;;7.97;86.20;100307.36;85980;1288;22502;-74
2022/11/11 08:24:43;;;;;;;54.70;30.50;;;;;;;8.07;86.16;100313.86;86011;1290;27347;-71
2022/11/11 08:26:46;;;;;;;56.30;32.00;;;;;;;8.18;86.45;100311.56;85954;1287;100591;-71
2022/11/11 08:28:52;;;;;;;51.10;30.50;;;;;;;8.28;86.55;100312.80;85986;1296;23031;-72
2022/11/11 08:30:58;;;;;;;44.50;27.00;;;;;;;8.40;86.56;100312.08;86290;1296;25282;-70
2022/11/11 08:33:03;;;;;;;44.60;27.40;;;;;;;8.49;86.36;100306.86;85718;1290;100346;-71
2022/11/11 08:35:06;;;;;;;39.20;25.40;;;;;;;8.56;86.24;100315.67;86096;1289;23547;-71
2022/11/11 08:37:08;;;;;;;37.10;25.00;;;;;;;8.64;86.07;100319.55;85851;1290;22521;-70
2022/11/11 08:39:10;;;;;;;36.20;24.50;;;;;;;8.70;86.10;100318.92;85833;1297;100014;-72
2022/11/11 08:41:13;;;;;;;48.00;27.10;;;;;;;8.73;85.83;100319.74;86026;1287;22527;-73
2022/11/11 08:43:14;;;;;;;39.70;25.00;;;;;;;8.79;86.09;100319.10;85928;1287;22526;-71
2022/11/11 08:45:16;;;;;;;42.50;24.60;;;;;;;8.86;85.88;100320.71;85832;1290;100684;-70
2022/11/11 08:47:19;;;;;;;44.60;25.00;;;;;;;8.92;85.82;100316.21;85850;1290;22762;-71
2022/11/11 08:49:21;;;;;;;41.50;23.90;;;;;;;8.98;85.79;100316.96;85883;1288;22476;-71
2022/11/11 08:51:25;;;;;;;58.20;24.50;;;;;;;9.06;85.90;100318.04;85948;1287;100099;-71
2022/11/11 08:53:27;;;;;;;43.00;25.40;;;;;;;9.15;85.67;100324.86;85755;1289;22536;-71
2022/11/11 08:55:29;;;;;;;44.80;25.80;;;;;;;9.24;85.65;100332.77;85923;1288;22511;-70
2022/11/11 08:57:31;;;;;;;36.10;23.10;;;;;;;9.37;85.57;100328.45;85774;1287;99720;-71
2022/11/11 08:59:33;;;;;;;44.00;24.00;;;;;;;9.44;85.44;100324.63;86025;1283;22916;-72
2022/11/11 09:01:35;;;;;;;41.60;26.20;;;;;;;9.46;85.44;100323.16;85952;1286;25588;-71
2022/11/11 09:03:37;;;;;;;45.90;25.60;;;;;;;9.50;85.40;100329.73;85886;1286;99508;-69
2022/11/11 09:05:40;;;;;;;37.20;24.40;;;;;;;9.56;85.28;100315.55;85925;1284;22967;-70
2022/11/11 09:07:42;;;;;;;40.30;22.90;;;;;;;9.71;85.32;100319.27;86128;1287;22483;-71
2022/11/11 09:09:43;;;;;;;35.00;21.20;;;;;;;9.80;85.51;100318.54;85752;1284;99942;-71
2022/11/11 09:11:45;;;;;;;39.50;23.00;;;;;;;9.86;85.21;100313.31;85696;1291;22760;-71
2022/11/11 09:13:47;;;;;;;35.70;22.60;;;;;;;9.91;85.14;100308.96;85947;1288;22478;-71
2022/11/11 09:15:51;;;;;;;32.20;22.00;;;;;;;10.01;85.04;100314.02;85608;1291;100089;-71
2022/11/11 09:17:53;;;;;;;29.00;18.50;;;;;;;10.15;85.28;100306.63;85974;1292;22730;-72
2022/11/11 09:19:55;;;;;;;30.00;19.50;;;;;;;10.28;85.15;100303.66;85932;1289;22506;-71
2022/11/11 09:21:56;;;;;;;27.70;17.80;;;;;;;10.37;85.13;100302.59;85933;1289;99684;-73
2022/11/11 09:23:59;;;;;;;35.00;17.40;;;;;;;10.46;85.07;100303.79;85799;1290;22610;-72
2022/11/11 09:26:04;;;;;;;34.30;18.10;;;;;;;10.52;84.90;100306.42;85719;1290;25274;-72
2022/11/11 09:28:06;;;;;;;32.90;17.20;;;;;;;10.53;84.61;100311.65;86006;1290;99900;-71
2022/11/11 09:30:09;;;;;;;30.50;17.40;;;;;;;10.60;84.65;100316.05;86142;1288;24164;-71
2022/11/11 09:32:11;;;;;;;31.90;17.10;;;;;;;10.65;84.58;100318.91;86204;1290;24420;-71
2022/11/11 09:34:13;;;;;;;26.70;17.50;;;;;;;10.72;84.63;100313.46;85829;1287;99841;-70
2022/11/11 09:36:15;;;;;;;29.30;16.80;;;;;;;10.77;84.32;100305.95;86005;1288;22553;-70
2022/11/11 09:38:17;;;;;;;29.70;16.00;;;;;;;10.78;84.24;100307.50;85850;1294;23125;-71
2022/11/11 09:40:22;;;;;;;27.80;15.90;;;;;;;10.78;84.26;100309.95;85917;1287;100128;-71
2022/11/11 09:42:54;;;;;;;26.80;16.60;;;;;;;10.80;84.20;100312.36;85880;1284;22997;-70
2022/11/11 09:45:06;;;;;;;24.70;16.30;;;;;;;10.81;84.12;100314.79;85809;1292;99732;-71
2022/11/11 09:47:38;;;;;;;26.90;15.40;;;;;;;10.82;84.07;100310.36;85850;1287;22596;-71
2022/11/11 09:50:03;;;;;;;26.10;16.10;;;;;;;10.83;83.96;100309.45;85828;1298;26748;-70
2022/11/11 09:52:16;;;;;;;25.80;15.60;;;;;;;10.87;83.92;100311.96;85955;1288;100216;-72
2022/11/11 09:54:29;;;;;;;30.60;15.40;;;;;;;10.90;83.95;100314.19;85915;1287;23602;-71
2022/11/11 09:56:33;;;;;;;24.40;13.60;;;;;;;10.91;83.82;100317.52;85603;1287;98941;-72
2022/11/11 09:58:50;;;;;;;19.90;13.60;;;;;;;10.94;83.70;100321.11;85831;1283;24323;-70
2022/11/11 10:01:01;;;;;;;20.70;13.20;;;;;;;10.99;83.77;100325.17;85697;1290;22507;-71
2022/11/11 10:03:09;;;;;;;;;;;;;;;11.06;83.74;100323.38;85953;1290;98754;-71
2022/11/11 10:05:37;;;;;;;19.20;14.10;;;;;;;11.13;83.64;100315.46;85880;1294;22490;-70
2022/11/11 10:07:55;;;;;;;26.80;15.50;;;;;;;11.32;83.77;100323.00;85938;1293;23755;-70
2022/11/11 10:10:10;;;;;;;22.90;14.30;;;;;;;11.54;83.80;100313.73;86287;1291;99853;-72
2022/11/11 10:12:16;;;;;;;27.10;13.70;;;;;;;11.79;83.77;100315.44;85827;1292;22469;-72
2022/11/11 10:14:18;;;;;;;25.20;12.60;;;;;;;11.99;83.49;100313.20;86267;1285;24251;-71
2022/11/11 10:16:20;;;;;;;23.60;11.80;;;;;;;12.20;83.31;100302.66;86411;1288;99755;-71
2022/11/11 10:18:49;;;;;;;27.50;11.60;;;;;;;12.43;83.12;100298.90;86317;1280;23047;-71
2022/11/11 10:20:57;;;;;;;24.60;10.30;;;;;;;12.52;82.80;100301.05;85916;1287;99693;-72
2022/11/11 10:23:28;;;;;;;18.40;9.70;;;;;;;12.47;82.60;100295.05;86028;1287;23364;-71
2022/11/11 10:25:30;;;;;;;27.90;10.30;;;;;;;12.38;82.29;100299.42;85938;1287;22487;-72
2022/11/11 10:27:33;;;;;;;18.10;8.70;;;;;;;12.30;82.14;100294.04;86028;1284;98697;-71
2022/11/11 10:29:43;;;;;;;16.10;9.30;;;;;;;12.22;81.87;100288.16;86042;1287;22491;-72
2022/11/11 10:32:07;;;;;;;15.60;9.00;;;;;;;12.12;82.09;100287.63;85884;1290;22586;-71
2022/11/11 10:34:11;;;;;;;15.70;7.00;;;;;;;12.03;81.90;100296.70;85696;1287;99976;-72
2022/11/11 10:36:17;;;;;;;11.60;7.10;;;;;;;12.01;82.18;100294.14;85885;1291;22521;-71
2022/11/11 10:38:51;;;;;;;13.40;8.20;;;;;;;12.07;82.37;100296.22;85933;1289;23878;-71
2022/11/11 10:40:55;;;;;;;14.00;7.50;;;;;;;12.19;82.23;100297.59;86081;1289;24880;-72
2022/11/11 10:42:57;;;;;;;14.10;7.00;;;;;;;12.30;82.32;100296.52;86012;1286;26437;-71
2022/11/11 10:45:00;;;;;;;12.40;6.00;;;;;;;12.40;81.93;100295.85;85805;1288;100043;-72
2022/11/11 10:47:27;;;;;;;11.00;5.20;;;;;;;12.54;81.93;100295.87;85805;1287;22581;-71
2022/11/11 10:49:35;;;;;;;10.60;5.40;;;;;;;12.72;81.65;100295.08;85829;1281;22617;-71